Tupelo Regional Airport
KTUP : now visible

Airfield :











YOU CAN JOIN US ON...

 
LOGIN :

Register | Disclaimer

   EN    FR    IT 

 









Legend :    VFR   Marginal VFR   IFR   Intensive IFR   Very Intensive IFR
Visi :
Ceiling :
>= 8 km
>= 3000ft
5 to 8 km
1000 to 3000 ft
1500m to 5 km
500 to 1000 ft
800 to 1500m
200 to 500 ft
< 800m
< 200 ft
Symbols :   Thunderstorms  Fog  Heavy snow  Heavy precipitations  Wind > 20 kt






- Airport Elevation : 346 ft
- IATA code : TUP


KTUP - Tupelo Regional

CURRENT METAR :
  • 270353Z AUTO 00000KT 6SM BR BKN008 BKN012 OVC037 09/08 A2999 RMK AO2 CIG 007V012 SLP156 T00940078 $

EXPIRED METARs :
  • 270347Z AUTO 00000KT 10SM FEW008 BKN012 OVC037 09/07 A2999 RMK AO2 $
  • 270253Z 00000KT 10SM OVC039 09/08 A2999 RMK AO2 RAE02B11E37 SLP157 P0000 60001 T00940078 55001 $
  • 270231Z 00000KT 10SM -RA SCT026 OVC038 09/07 A3000 RMK AO2 RAE02B11 P0000 T00940072 $
  • 270205Z 00000KT 10SM BKN027 OVC044 09/07 A2999 RMK AO2 RAE02 P0000 T00940072 $

TAF KTUP
Valid from the 27 at 00:00 until the 28 at 00:00 UTC


262328Z 2700/2724 20005KT P6SM BKN015
FM270300 21003KT 4SM -RA OVC007
TEMPO 2708/2712 2SM -DZ BR OVC004
FM271600 31007KT 6SM BR BKN007
FM271900 33005KT P6SM SCT015



MET'MAP, your aeronautical weather chart ! - Copyright ORBIFLY December 2007 - Disclaimer

ORBIFLY MET'MAP TEAM :

Programming & Development : Alexandra Zaïnal
Concept & original design : Baudouin d'Aumeries
Assistance for programming : Marc-Olivier Méhu
Technical & hardware support : Manuel Goepfert

Contact : metmap@orbifly.com




SOURCES & CREDITS :

   NOAA       Earth
Advisory